createdAt,value
2018-06-25T00:01:10.282Z,88.69
2018-06-25T00:02:53.924Z,89.09
2018-06-25T00:04:31.398Z,88.79
2018-06-25T00:06:08.473Z,89.23
2018-06-25T00:07:45.364Z,88.65
2018-06-25T00:09:21.429Z,89.21
2018-06-25T00:10:57.963Z,89.15
2018-06-25T00:12:34.408Z,88.84
2018-06-25T00:14:09.868Z,88.17
2018-06-25T00:15:47.473Z,88.61
2018-06-25T00:17:29.354Z,88.62
2018-06-25T00:19:08.268Z,88.49
2018-06-25T00:20:46.736Z,88.51
2018-06-25T00:22:23.381Z,88.51
2018-06-25T00:24:32.436Z,88.70
2018-06-25T00:27:50.101Z,88.91
2018-06-25T00:29:28.535Z,88.70
2018-06-25T00:31:09.206Z,88.93
2018-06-25T00:32:53.569Z,89.28
2018-06-25T00:34:34.443Z,89.10
2018-06-25T00:36:12.207Z,88.65
2018-06-25T00:37:48.169Z,88.65
2018-06-25T00:39:25.132Z,88.60
2018-06-25T00:41:01.096Z,89.14
2018-06-25T00:42:36.560Z,88.87
2018-06-25T00:44:11.947Z,89.25
2018-06-25T00:45:48.120Z,89.24
2018-06-25T00:47:23.864Z,89.04
2018-06-25T00:49:00.331Z,88.50
2018-06-25T00:50:35.351Z,88.87
2018-06-25T00:52:12.272Z,89.10
2018-06-25T00:53:48.057Z,88.59
2018-06-25T00:55:23.436Z,88.81
2018-06-25T00:56:59.626Z,88.73
2018-06-25T00:58:45.814Z,88.74
2018-06-25T01:00:21.381Z,89.10
2018-06-25T01:01:57.286Z,89.23
2018-06-25T01:03:32.382Z,88.92
2018-06-25T01:05:08.716Z,88.82
2018-06-25T01:06:44.660Z,89.06
2018-06-25T01:08:20.790Z,88.86
2018-06-25T01:09:55.960Z,88.46
2018-06-25T01:11:30.920Z,88.59
2018-06-25T01:13:06.691Z,88.57
2018-06-25T01:14:41.774Z,88.61
2018-06-25T01:16:17.753Z,88.72
2018-06-25T01:17:52.852Z,89.15
2018-06-25T01:19:29.006Z,88.51
2018-06-25T01:21:04.734Z,88.66
2018-06-25T01:22:40.260Z,88.59
2018-06-25T01:24:15.782Z,87.85
2018-06-25T01:25:51.636Z,88.73
2018-06-25T01:27:26.881Z,88.22
2018-06-25T01:29:02.905Z,88.29
2018-06-25T01:30:38.161Z,88.39
2018-06-25T01:32:14.401Z,88.67
2018-06-25T01:33:49.991Z,88.09
2018-06-25T01:35:25.845Z,88.32
2018-06-25T01:37:02.413Z,88.32
2018-06-25T01:38:39.066Z,88.33
2018-06-25T01:40:14.948Z,88.12
2018-06-25T01:41:50.314Z,88.65
2018-06-25T01:43:25.462Z,88.92
2018-06-25T01:45:03.381Z,88.32
2018-06-25T01:46:39.045Z,89.05
2018-06-25T01:48:15.366Z,88.81
2018-06-25T01:49:50.519Z,89.00
2018-06-25T01:51:28.042Z,88.97
2018-06-25T01:53:03.621Z,89.08
2018-06-25T01:54:39.472Z,88.72
2018-06-25T01:56:17.223Z,88.74
2018-06-25T01:57:53.271Z,88.93
2018-06-25T01:59:29.089Z,89.25
2018-06-25T02:01:04.777Z,88.97
2018-06-25T02:02:40.779Z,88.94
2018-06-25T02:04:15.853Z,89.30
2018-06-25T02:05:51.211Z,89.35
2018-06-25T02:07:28.609Z,89.52
2018-06-25T02:09:04.157Z,88.87
2018-06-25T02:10:39.465Z,89.19
2018-06-25T02:13:56.451Z,89.19
2018-06-25T02:15:32.207Z,89.11
2018-06-25T02:17:07.595Z,89.36
2018-06-25T02:18:42.555Z,89.37
2018-06-25T02:20:18.393Z,89.25
2018-06-25T02:21:53.559Z,89.46
2018-06-25T02:23:29.354Z,89.45
2018-06-25T02:25:04.804Z,89.13
2018-06-25T02:26:39.908Z,89.73
2018-06-25T02:28:15.008Z,89.23
2018-06-25T02:29:50.619Z,89.89
2018-06-25T02:31:26.427Z,89.88
2018-06-25T02:33:02.491Z,89.19
2018-06-25T02:34:37.422Z,89.09
2018-06-25T02:36:12.695Z,89.58
2018-06-25T02:37:47.573Z,89.03
2018-06-25T02:39:23.205Z,89.77
2018-06-25T02:40:58.256Z,89.64
2018-06-25T02:42:34.261Z,89.55
2018-06-25T02:44:13.853Z,90.29
2018-06-25T02:45:50.235Z,89.93
2018-06-25T02:47:27.678Z,90.06
2018-06-25T02:49:06.093Z,89.92
2018-06-25T02:50:42.996Z,90.25
2018-06-25T02:52:19.917Z,89.87
2018-06-25T02:53:56.978Z,89.77
2018-06-25T02:55:33.305Z,90.05
2018-06-25T02:57:08.685Z,89.91
2018-06-25T02:58:46.235Z,90.60
2018-06-25T03:00:22.373Z,90.16
2018-06-25T03:01:57.534Z,90.00
2018-06-25T03:03:37.894Z,90.05
2018-06-25T03:05:13.061Z,89.94
2018-06-25T03:06:48.184Z,90.36
2018-06-25T03:08:23.942Z,90.22
2018-06-25T03:10:00.161Z,90.25
2018-06-25T03:11:35.700Z,90.07
2018-06-25T03:13:11.088Z,90.10
2018-06-25T03:14:46.707Z,89.99
2018-06-25T03:16:21.591Z,90.23
2018-06-25T03:17:57.100Z,90.23
2018-06-25T03:19:32.114Z,90.26
2018-06-25T03:21:07.439Z,90.23
2018-06-25T03:22:42.276Z,90.44
2018-06-25T03:24:17.170Z,90.06
2018-06-25T03:25:53.690Z,90.31
2018-06-25T03:27:28.923Z,89.93
2018-06-25T03:29:04.195Z,90.29
2018-06-25T03:30:39.121Z,90.39
2018-06-25T03:32:14.647Z,90.19
2018-06-25T03:33:49.973Z,90.17
2018-06-25T03:35:25.199Z,90.55
2018-06-25T03:37:00.456Z,90.52
2018-06-25T03:38:35.294Z,90.16
2018-06-25T03:40:10.593Z,90.73
2018-06-25T03:41:49.566Z,89.97
2018-06-25T03:43:25.154Z,90.63
2018-06-25T03:45:00.230Z,90.46
2018-06-25T03:46:36.172Z,90.42
2018-06-25T03:48:12.276Z,90.76
2018-06-25T03:49:48.304Z,90.62
2018-06-25T03:51:23.663Z,90.00
2018-06-25T03:52:59.561Z,90.48
2018-06-25T03:54:35.492Z,90.52
2018-06-25T03:56:10.459Z,90.71
2018-06-25T03:57:45.942Z,90.55
2018-06-25T03:59:20.924Z,90.29
2018-06-25T04:00:59.392Z,90.20
2018-06-25T04:02:35.363Z,89.99
2018-06-25T04:04:12.651Z,89.92
2018-06-25T04:05:49.433Z,89.94
2018-06-25T04:07:26.427Z,90.62
2018-06-25T04:09:01.313Z,90.37
2018-06-25T04:10:37.340Z,90.23
2018-06-25T04:12:12.511Z,90.24
2018-06-25T04:13:47.773Z,89.81
2018-06-25T04:15:22.908Z,89.96
2018-06-25T04:16:58.270Z,89.49
2018-06-25T04:18:34.137Z,89.37
2018-06-25T04:20:10.785Z,89.17
2018-06-25T04:21:45.855Z,89.58
2018-06-25T04:23:20.765Z,89.32
2018-06-25T04:24:57.441Z,89.17
2018-06-25T04:26:34.936Z,89.33
2018-06-25T04:28:10.925Z,89.40
2018-06-25T04:29:45.908Z,89.27
2018-06-25T04:31:21.001Z,89.71
2018-06-25T04:32:56.783Z,88.92
2018-06-25T04:34:32.035Z,89.25
2018-06-25T04:36:07.090Z,88.82
2018-06-25T04:37:42.557Z,89.13
2018-06-25T04:39:19.149Z,89.33
2018-06-25T04:40:56.760Z,88.79
2018-06-25T04:42:44.089Z,89.50
2018-06-25T04:44:21.153Z,88.23
2018-06-25T04:45:56.296Z,88.98
2018-06-25T04:47:32.323Z,88.98
2018-06-25T04:49:07.552Z,88.79
2018-06-25T04:50:42.828Z,88.65
2018-06-25T04:52:18.093Z,89.50
2018-06-25T04:53:53.100Z,89.08
2018-06-25T04:55:28.505Z,89.18
2018-06-25T04:57:03.529Z,88.81
2018-06-25T04:58:38.779Z,88.80
2018-06-25T05:00:15.986Z,89.09
2018-06-25T05:01:51.165Z,88.95
2018-06-25T05:03:26.784Z,89.41
2018-06-25T05:05:01.714Z,89.20
2018-06-25T05:06:36.702Z,89.71
2018-06-25T05:08:12.660Z,89.45
2018-06-25T05:09:48.041Z,89.06
2018-06-25T05:11:29.565Z,89.58
2018-06-25T05:13:04.481Z,89.62
2018-06-25T05:14:41.078Z,89.90
2018-06-25T05:16:16.986Z,89.86
2018-06-25T05:17:52.163Z,89.70
2018-06-25T05:19:27.194Z,89.86
2018-06-25T05:21:02.420Z,89.37
2018-06-25T05:22:38.869Z,89.83
2018-06-25T05:24:14.992Z,89.98
2018-06-25T05:25:49.887Z,89.63
2018-06-25T05:27:26.888Z,89.74
2018-06-25T05:29:03.651Z,89.58
2018-06-25T05:30:38.808Z,89.49
2018-06-25T05:32:14.449Z,89.51
2018-06-25T05:33:49.508Z,89.51
2018-06-25T05:35:27.219Z,89.73
2018-06-25T05:37:02.316Z,88.90
2018-06-25T05:38:37.171Z,89.07
2018-06-25T05:40:12.524Z,88.85
2018-06-25T05:41:48.106Z,88.59
2018-06-25T05:43:23.992Z,89.09
2018-06-25T05:44:58.959Z,88.95
2018-06-25T05:46:34.408Z,88.98
2018-06-25T05:48:10.181Z,88.93
2018-06-25T05:49:45.386Z,88.78
2018-06-25T05:51:21.869Z,89.51
2018-06-25T05:52:56.889Z,89.29
2018-06-25T05:54:31.972Z,88.95
2018-06-25T05:56:08.174Z,88.76
2018-06-25T05:57:43.167Z,88.61
2018-06-25T05:59:18.215Z,88.72
2018-06-25T06:00:56.263Z,88.12
2018-06-25T06:02:31.908Z,88.73
2018-06-25T06:04:07.391Z,88.67
2018-06-25T06:05:42.466Z,88.79
2018-06-25T06:07:17.631Z,88.27
2018-06-25T06:08:53.638Z,88.37
2018-06-25T06:10:29.107Z,88.65
2018-06-25T06:12:04.266Z,88.75
2018-06-25T06:13:39.330Z,88.05
2018-06-25T06:15:17.077Z,88.16
2018-06-25T06:16:52.355Z,88.50
2018-06-25T06:18:28.366Z,88.27
2018-06-25T06:20:03.407Z,88.45
2018-06-25T06:21:38.291Z,87.46
2018-06-25T06:23:13.367Z,87.68
2018-06-25T06:24:48.229Z,88.09
2018-06-25T06:26:23.677Z,87.95
2018-06-25T06:27:58.926Z,87.45
2018-06-25T06:29:34.304Z,87.49
2018-06-25T06:31:09.371Z,86.91
2018-06-25T06:32:44.891Z,87.01
2018-06-25T06:34:20.272Z,87.22
2018-06-25T06:35:55.555Z,87.05
2018-06-25T06:37:30.713Z,86.78
2018-06-25T06:39:08.842Z,86.00
2018-06-25T06:40:44.252Z,87.08
2018-06-25T06:42:19.499Z,86.97
2018-06-25T06:43:54.744Z,87.25
2018-06-25T06:45:30.915Z,87.11
2018-06-25T06:47:05.951Z,87.63
2018-06-25T06:48:42.500Z,87.39
2018-06-25T06:50:18.384Z,86.63
2018-06-25T06:51:56.323Z,86.68
2018-06-25T06:53:32.987Z,86.45
2018-06-25T06:55:10.419Z,86.06
2018-06-25T06:56:45.889Z,86.72
2018-06-25T06:58:21.375Z,85.75
2018-06-25T06:59:56.297Z,87.13
2018-06-25T07:01:35.480Z,86.60
2018-06-25T07:03:10.892Z,86.35
2018-06-25T07:04:45.760Z,86.17
2018-06-25T07:06:23.031Z,85.47
2018-06-25T07:07:58.664Z,85.56
2018-06-25T07:09:34.029Z,86.42
2018-06-25T07:11:12.027Z,86.07
2018-06-25T07:12:48.382Z,85.63
2018-06-25T07:14:23.644Z,86.02
2018-06-25T07:16:03.438Z,85.67
2018-06-25T07:17:39.772Z,86.00
2018-06-25T07:19:15.061Z,86.37
2018-06-25T07:20:52.058Z,84.36
2018-06-25T07:22:27.153Z,84.49
2018-06-25T07:24:02.412Z,84.98
2018-06-25T07:25:37.588Z,85.24
2018-06-25T07:27:15.126Z,85.69
2018-06-25T07:28:54.027Z,85.30
2018-06-25T07:30:31.261Z,85.32
2018-06-25T07:32:06.111Z,84.98
2018-06-25T07:33:43.765Z,85.13
2018-06-25T07:35:19.772Z,85.60
2018-06-25T07:36:54.973Z,84.11
2018-06-25T07:38:34.216Z,85.82
2018-06-25T07:40:11.285Z,84.40
2018-06-25T07:41:51.427Z,85.05
2018-06-25T07:43:26.482Z,84.78
2018-06-25T07:45:03.969Z,84.24
2018-06-25T07:46:42.413Z,84.38
2018-06-25T07:48:19.424Z,85.11
2018-06-25T07:49:54.917Z,84.97
2018-06-25T07:51:29.939Z,83.34
2018-06-25T07:53:08.317Z,83.99
2018-06-25T07:54:43.629Z,82.51
2018-06-25T07:56:19.364Z,82.76
2018-06-25T07:57:55.184Z,83.03
2018-06-25T07:59:31.576Z,83.18
2018-06-25T08:01:07.248Z,83.30
2018-06-25T08:02:43.864Z,82.00
2018-06-25T08:04:19.999Z,83.40
2018-06-25T08:05:57.032Z,82.03
2018-06-25T08:07:34.543Z,82.37
2018-06-25T08:09:11.371Z,83.17
2018-06-25T08:10:46.709Z,82.56
2018-06-25T08:12:24.091Z,82.98
2018-06-25T08:14:01.045Z,82.42
2018-06-25T08:15:36.357Z,83.67
2018-06-25T08:17:11.477Z,83.40
2018-06-25T08:18:47.166Z,84.11
2018-06-25T08:20:22.694Z,83.77
2018-06-25T08:21:57.933Z,82.68
2018-06-25T08:23:34.312Z,84.20
2018-06-25T08:25:10.639Z,83.19
2018-06-25T08:26:46.496Z,83.94
2018-06-25T08:28:23.308Z,83.47
2018-06-25T08:29:58.592Z,82.46
2018-06-25T08:31:34.302Z,83.24
2018-06-25T08:33:09.889Z,84.58
2018-06-25T08:34:45.068Z,82.95
2018-06-25T08:36:20.464Z,83.43
2018-06-25T08:37:56.073Z,83.53
2018-06-25T08:39:31.440Z,84.10
2018-06-25T08:41:07.820Z,84.09
2018-06-25T08:42:43.118Z,84.62
2018-06-25T08:44:19.562Z,82.53
2018-06-25T08:45:56.439Z,83.87
2018-06-25T08:47:37.557Z,82.19
2018-06-25T08:49:13.120Z,83.01
2018-06-25T08:50:48.505Z,80.80
2018-06-25T08:52:23.689Z,80.28
2018-06-25T08:53:59.526Z,79.31
2018-06-25T08:55:35.754Z,80.01
2018-06-25T08:57:11.168Z,78.25
2018-06-25T08:58:46.211Z,79.41
2018-06-25T09:00:22.504Z,80.26
2018-06-25T09:01:58.168Z,79.19
2018-06-25T09:03:34.822Z,79.30
2018-06-25T09:05:11.625Z,80.76
2018-06-25T09:06:47.716Z,80.55
2018-06-25T09:08:22.870Z,80.83
2018-06-25T09:10:00.627Z,81.72
2018-06-25T09:11:35.867Z,81.14
2018-06-25T09:13:12.388Z,81.51
2018-06-25T09:14:49.246Z,80.65
2018-06-25T09:16:25.295Z,79.67
2018-06-25T09:18:01.047Z,79.91
2018-06-25T09:19:38.721Z,77.19
2018-06-25T09:21:13.418Z,77.12
2018-06-25T09:22:54.279Z,76.48
2018-06-25T09:24:32.224Z,75.73
2018-06-25T09:26:08.827Z,74.99
2018-06-25T09:27:51.323Z,75.19
2018-06-25T09:29:27.463Z,75.81
2018-06-25T09:31:02.558Z,77.95
2018-06-25T09:32:37.919Z,76.19
2018-06-25T09:34:19.376Z,76.86
2018-06-25T09:35:54.692Z,76.44
2018-06-25T09:37:29.898Z,77.36
2018-06-25T09:39:07.781Z,76.42
2018-06-25T09:40:43.655Z,77.54
2018-06-25T09:42:20.448Z,77.44
2018-06-25T09:43:56.897Z,78.41
2018-06-25T09:45:32.709Z,76.80
2018-06-25T09:47:12.429Z,77.32
2018-06-25T09:48:50.447Z,77.98
2018-06-25T09:50:27.380Z,77.89
2018-06-25T09:52:03.095Z,78.26
2018-06-25T09:53:38.747Z,76.34
2018-06-25T09:55:13.800Z,75.28
2018-06-25T09:56:50.588Z,74.29
2018-06-25T09:58:25.776Z,73.54
2018-06-25T10:00:04.287Z,74.50
2018-06-25T10:01:39.632Z,73.66
2018-06-25T10:03:17.845Z,72.84
2018-06-25T10:04:53.654Z,72.16
2018-06-25T10:06:29.420Z,72.08
2018-06-25T10:08:06.871Z,70.50
2018-06-25T10:09:43.566Z,74.07
2018-06-25T10:11:19.760Z,74.69
2018-06-25T10:12:56.096Z,75.69
2018-06-25T10:14:33.262Z,75.33
2018-06-25T10:16:10.395Z,75.42
2018-06-25T10:17:45.522Z,75.36
2018-06-25T10:19:20.603Z,75.10
2018-06-25T10:20:57.856Z,75.71
2018-06-25T10:22:34.262Z,75.87
2018-06-25T10:24:10.149Z,74.57
2018-06-25T10:25:45.440Z,74.18
2018-06-25T10:27:21.990Z,74.80
2018-06-25T10:28:57.471Z,75.62
2018-06-25T10:30:32.856Z,74.83
2018-06-25T10:32:08.957Z,76.25
2018-06-25T10:33:48.584Z,74.39
2018-06-25T10:35:25.653Z,75.23
2018-06-25T10:37:05.460Z,73.64
2018-06-25T10:38:43.382Z,73.53
2018-06-25T10:40:19.927Z,72.13
2018-06-25T10:41:58.775Z,72.74
2018-06-25T10:43:37.468Z,71.18
2018-06-25T10:45:17.907Z,70.65
2018-06-25T10:46:53.595Z,70.37
2018-06-25T10:48:30.631Z,69.67
2018-06-25T10:50:10.415Z,70.06
2018-06-25T10:51:48.167Z,70.73
2018-06-25T10:53:23.710Z,70.96
2018-06-25T10:55:03.491Z,68.67
2018-06-25T10:56:40.638Z,67.37
2018-06-25T10:58:17.888Z,66.95
2018-06-25T10:59:54.373Z,67.82
2018-06-25T11:01:29.914Z,66.36
2018-06-25T11:03:06.221Z,65.40
2018-06-25T11:04:43.834Z,67.48
2018-06-25T11:06:20.247Z,68.71
2018-06-25T11:07:58.159Z,68.56
2018-06-25T11:09:35.708Z,69.73
2018-06-25T11:11:11.745Z,69.80
2018-06-25T11:12:49.449Z,70.41
2018-06-25T11:14:27.097Z,70.86
2018-06-25T11:16:03.700Z,70.13
2018-06-25T11:17:39.426Z,71.02
2018-06-25T11:19:17.616Z,70.91
2018-06-25T11:20:53.970Z,70.87
2018-06-25T11:22:30.005Z,69.49
2018-06-25T11:24:12.131Z,68.91
2018-06-25T11:25:52.817Z,69.75
2018-06-25T11:27:30.095Z,67.99
2018-06-25T11:29:07.275Z,67.74
2018-06-25T11:30:46.690Z,66.99
2018-06-25T11:32:23.822Z,67.45
2018-06-25T11:33:59.317Z,68.89
2018-06-25T11:35:36.884Z,70.23
2018-06-25T11:37:15.803Z,69.99
2018-06-25T11:38:52.670Z,70.43
2018-06-25T11:41:31.764Z,71.30
2018-06-25T11:43:10.133Z,73.21
2018-06-25T11:44:44.942Z,72.39
2018-06-25T11:46:21.263Z,73.29
2018-06-25T11:47:58.297Z,74.11
2018-06-25T11:49:37.278Z,73.27
2018-06-25T11:51:15.818Z,73.92
2018-06-25T11:52:55.247Z,73.83
2018-06-25T11:54:31.413Z,74.76
2018-06-25T11:56:08.154Z,74.72
2018-06-25T11:57:46.398Z,75.54
2018-06-25T11:59:22.387Z,75.40
2018-06-25T12:00:59.800Z,74.93
2018-06-25T12:02:37.962Z,74.98
2018-06-25T12:04:14.537Z,75.56
2018-06-25T12:05:49.812Z,76.22
2018-06-25T12:07:27.818Z,74.58
2018-06-25T12:09:04.740Z,74.42
2018-06-25T12:10:41.767Z,75.01
2018-06-25T12:12:18.765Z,74.11
2018-06-25T12:13:54.479Z,73.87
2018-06-25T12:15:32.909Z,72.92
2018-06-25T12:17:11.640Z,74.03
2018-06-25T12:18:48.350Z,73.47
2018-06-25T12:20:25.701Z,73.40
2018-06-25T12:22:02.296Z,73.57
2018-06-25T12:25:14.980Z,73.04
2018-06-25T12:26:52.617Z,73.17
2018-06-25T12:28:28.589Z,73.04
2018-06-25T12:30:10.131Z,73.41
2018-06-25T12:31:46.454Z,73.26
2018-06-25T12:33:21.304Z,73.66
2018-06-25T12:34:58.742Z,71.92
2018-06-25T12:36:33.879Z,71.78
2018-06-25T12:38:11.795Z,72.19
2018-06-25T12:39:50.257Z,72.08
2018-06-25T12:41:33.027Z,72.37
2018-06-25T12:43:11.050Z,72.03
2018-06-25T12:44:46.576Z,72.01
2018-06-25T12:46:23.345Z,72.36
2018-06-25T12:48:00.259Z,71.63
2018-06-25T12:49:35.490Z,71.79
2018-06-25T12:51:14.625Z,73.27
2018-06-25T12:52:50.636Z,71.80
2018-06-25T12:54:27.500Z,71.51
2018-06-25T12:56:04.006Z,71.17
2018-06-25T12:57:40.025Z,70.22
2018-06-25T12:59:15.325Z,68.95
2018-06-25T13:00:52.270Z,68.20
2018-06-25T13:02:28.819Z,68.99
2018-06-25T13:04:04.191Z,68.17
2018-06-25T13:05:40.124Z,67.24
2018-06-25T13:07:16.204Z,66.79
2018-06-25T13:08:53.612Z,68.01
2018-06-25T13:10:31.337Z,68.26
2018-06-25T13:12:21.312Z,65.68
2018-06-25T13:13:58.845Z,65.26
2018-06-25T13:15:38.821Z,65.41
2018-06-25T13:17:16.244Z,65.14
2018-06-25T13:18:53.867Z,66.04
2018-06-25T13:20:29.329Z,64.42
2018-06-25T13:22:06.900Z,66.05
2018-06-25T13:23:41.988Z,65.92
2018-06-25T13:25:19.600Z,65.41
2018-06-25T13:26:54.727Z,65.88
2018-06-25T13:28:33.211Z,64.65
2018-06-25T13:30:17.575Z,65.51
2018-06-25T13:32:23.084Z,64.07
2018-06-25T13:34:02.698Z,62.37
2018-06-25T13:35:39.159Z,59.66
2018-06-25T13:37:15.247Z,60.16
2018-06-25T13:38:52.623Z,62.14
2018-06-25T13:40:28.841Z,61.45
2018-06-25T13:42:07.815Z,60.13
2018-06-25T13:43:44.110Z,61.39
2018-06-25T13:45:19.832Z,58.54
2018-06-25T13:46:56.339Z,61.16
2018-06-25T13:48:33.369Z,58.12
2018-06-25T13:50:11.023Z,60.54
2018-06-25T13:51:49.403Z,60.77
2018-06-25T13:53:29.568Z,59.65
2018-06-25T13:55:07.984Z,57.77
2018-06-25T13:57:06.179Z,58.63
2018-06-25T13:58:57.298Z,59.88
2018-06-25T14:01:05.858Z,58.75
2018-06-25T14:02:47.485Z,60.88
2018-06-25T14:04:33.014Z,61.51
2018-06-25T14:06:13.152Z,60.45
2018-06-25T14:07:50.075Z,61.75
2018-06-25T14:09:25.910Z,61.18
2018-06-25T14:11:02.577Z,62.36
2018-06-25T14:12:39.366Z,63.11
2018-06-25T14:14:19.614Z,62.03
2018-06-25T14:15:56.127Z,62.42
2018-06-25T14:17:34.966Z,61.30
2018-06-25T14:19:16.000Z,61.06
2018-06-25T14:21:00.684Z,59.37
2018-06-25T14:22:41.594Z,60.89
2018-06-25T14:24:22.111Z,60.88
2018-06-25T14:26:04.948Z,57.19
2018-06-25T14:27:46.344Z,56.87
2018-06-25T14:29:28.000Z,57.83
2018-06-25T14:31:12.831Z,56.92
2018-06-25T14:32:53.090Z,57.40
2018-06-25T14:34:28.948Z,57.02
2018-06-25T14:36:06.589Z,58.63
2018-06-25T14:37:43.651Z,58.37
2018-06-25T14:39:19.864Z,59.82
2018-06-25T14:40:56.292Z,60.07
2018-06-25T14:42:33.651Z,59.51
2018-06-25T14:44:11.749Z,59.66
2018-06-25T14:45:51.930Z,60.64
2018-06-25T14:47:28.744Z,61.91
2018-06-25T14:49:05.719Z,59.51
2018-06-25T14:50:43.155Z,59.36
2018-06-25T14:52:26.824Z,58.68
2018-06-25T14:54:06.039Z,58.04
2018-06-25T14:55:48.016Z,58.97
2018-06-25T14:57:25.179Z,58.52
2018-06-25T14:59:03.200Z,59.20
2018-06-25T15:00:41.051Z,59.00
2018-06-25T15:02:27.976Z,61.29
2018-06-25T15:04:07.358Z,61.58
2018-06-25T15:05:56.847Z,61.34
2018-06-25T15:07:41.232Z,62.00
2018-06-25T15:09:19.298Z,63.56
2018-06-25T15:11:09.619Z,62.14
2018-06-25T15:12:49.757Z,62.23
2018-06-25T15:14:28.881Z,61.71
2018-06-25T15:16:05.264Z,61.02
2018-06-25T15:17:40.433Z,61.84
2018-06-25T15:19:23.749Z,60.19
2018-06-25T15:20:59.371Z,61.22
2018-06-25T15:22:34.600Z,59.75
2018-06-25T15:24:13.079Z,58.37
2018-06-25T15:25:48.905Z,57.22
2018-06-25T15:27:24.856Z,57.97
2018-06-25T15:29:01.823Z,56.04
2018-06-25T15:30:39.080Z,56.18
2018-06-25T15:32:15.969Z,56.50
2018-06-25T15:33:55.386Z,56.21
2018-06-25T15:35:32.485Z,57.02
2018-06-25T15:37:09.993Z,56.17
2018-06-25T15:38:46.469Z,54.42
2018-06-25T15:40:21.688Z,55.72
2018-06-25T15:41:56.929Z,56.83
2018-06-25T15:43:33.688Z,55.79
2018-06-25T15:45:14.248Z,58.02
2018-06-25T15:46:50.376Z,57.82
2018-06-25T15:48:25.934Z,58.14
2018-06-25T15:50:03.595Z,57.53
2018-06-25T15:51:39.789Z,57.17
2018-06-25T15:53:16.773Z,57.40
2018-06-25T15:54:51.831Z,56.17
2018-06-25T15:56:27.570Z,57.76
2018-06-25T15:58:03.059Z,57.14
2018-06-25T15:59:39.104Z,57.02
2018-06-25T16:01:14.272Z,55.73
2018-06-25T16:02:49.834Z,52.43
2018-06-25T16:04:26.640Z,52.45
2018-06-25T16:06:02.623Z,51.50
2018-06-25T16:07:37.828Z,51.64
2018-06-25T16:09:17.562Z,52.04
2018-06-25T16:10:53.511Z,51.84
2018-06-25T16:12:30.119Z,51.53
2018-06-25T16:14:06.500Z,52.85
2018-06-25T16:15:42.205Z,52.23
2018-06-25T16:17:17.367Z,52.41
2018-06-25T16:18:54.909Z,51.69
2018-06-25T16:20:31.829Z,51.55
2018-06-25T16:22:08.991Z,49.61
2018-06-25T16:23:46.897Z,48.76
2018-06-25T16:25:26.385Z,51.06
2018-06-25T16:27:05.376Z,49.25
2018-06-25T16:28:46.449Z,47.95
2018-06-25T16:30:24.233Z,47.37
2018-06-25T16:32:12.774Z,47.76
2018-06-25T16:33:57.719Z,45.20
2018-06-25T16:35:37.353Z,45.12
2018-06-25T16:37:18.173Z,45.61
2018-06-25T16:38:54.258Z,46.50
2018-06-25T16:40:35.995Z,46.28
2018-06-25T16:42:14.288Z,48.12
2018-06-25T16:43:49.548Z,49.13
2018-06-25T16:45:30.096Z,50.27
2018-06-25T16:47:06.897Z,49.87
2018-06-25T16:48:43.769Z,50.95
2018-06-25T16:50:19.272Z,49.91
2018-06-25T16:51:56.617Z,50.63
2018-06-25T16:53:37.833Z,50.25
2018-06-25T16:55:14.566Z,50.04
2018-06-25T16:57:01.804Z,48.18
2018-06-25T16:58:37.302Z,49.16
2018-06-25T17:00:17.969Z,49.06
2018-06-25T17:01:56.011Z,48.39
2018-06-25T17:03:34.074Z,48.51
2018-06-25T17:05:10.226Z,48.64
2018-06-25T17:06:53.206Z,48.21
2018-06-25T17:08:30.124Z,49.36
2018-06-25T17:10:07.348Z,47.59
2018-06-25T17:11:44.870Z,48.39
2018-06-25T17:13:20.343Z,49.44
2018-06-25T17:14:57.334Z,48.92
2018-06-25T17:16:38.477Z,50.22
2018-06-25T17:18:16.875Z,49.66
2018-06-25T17:19:52.514Z,49.20
2018-06-25T17:21:34.918Z,48.35
2018-06-25T17:23:11.272Z,48.33
2018-06-25T17:25:00.560Z,48.53
2018-06-25T17:26:38.131Z,48.35
2018-06-25T17:28:28.671Z,48.76
2018-06-25T17:30:16.102Z,49.84
2018-06-25T17:33:49.124Z,49.87
2018-06-25T17:35:40.703Z,48.27
2018-06-25T17:37:22.953Z,48.61
2018-06-25T17:39:03.039Z,48.14
2018-06-25T17:40:41.535Z,49.26
2018-06-25T17:42:20.144Z,48.92
2018-06-25T17:43:59.182Z,49.78
2018-06-25T17:45:45.342Z,50.99
2018-06-25T17:49:13.753Z,50.88
2018-06-25T17:50:53.317Z,50.64
2018-06-25T17:52:30.899Z,50.62
2018-06-25T17:54:11.321Z,50.54
2018-06-25T17:55:47.534Z,51.95
2018-06-25T17:57:25.295Z,51.29
2018-06-25T17:59:01.274Z,51.16
2018-06-25T18:00:47.985Z,51.77
2018-06-25T18:02:27.188Z,53.86
2018-06-25T18:04:11.935Z,51.98
2018-06-25T18:14:55.688Z,52.89
2018-06-25T18:16:34.191Z,53.13
2018-06-25T18:18:24.830Z,54.01
2018-06-25T18:20:10.375Z,52.16
2018-06-25T18:21:51.351Z,52.49
2018-06-25T18:23:39.929Z,52.84
2018-06-25T18:25:35.549Z,52.44
2018-06-25T18:27:16.649Z,50.65
2018-06-25T18:28:56.454Z,51.19
2018-06-25T18:30:52.197Z,51.63
2018-06-25T18:32:32.832Z,51.64
2018-06-25T18:34:16.588Z,52.31
2018-06-25T18:35:57.796Z,53.03
2018-06-25T18:37:34.706Z,53.02
2018-06-25T18:39:16.508Z,52.61
2018-06-25T18:40:56.209Z,53.30
2018-06-25T18:48:08.418Z,53.24
2018-06-25T18:49:46.744Z,54.88
2018-06-25T18:51:24.381Z,55.03
2018-06-25T18:53:06.917Z,54.38
2018-06-25T18:54:43.258Z,54.67
2018-06-25T18:56:21.598Z,54.91
2018-06-25T18:57:57.445Z,54.88
2018-06-25T18:59:45.590Z,54.47
2018-06-25T19:01:23.785Z,54.92
2018-06-25T19:03:03.531Z,54.81
2018-06-25T19:04:48.476Z,54.99
2018-06-25T19:06:32.738Z,56.24
2018-06-25T19:08:12.494Z,56.73
2018-06-25T19:09:58.724Z,57.51
2018-06-25T19:11:39.637Z,57.33
2018-06-25T19:13:23.780Z,57.67
2018-06-25T19:15:10.498Z,57.81
2018-06-25T19:18:30.330Z,58.42
2018-06-25T19:20:07.402Z,59.55
2018-06-25T19:21:49.182Z,58.96
2018-06-25T19:23:26.886Z,60.10
2018-06-25T19:25:18.708Z,60.64
2018-06-25T19:26:57.644Z,61.18
2018-06-25T19:28:36.352Z,62.08
2018-06-25T19:30:13.438Z,62.43
2018-06-25T19:31:52.586Z,63.28
2018-06-25T19:33:28.921Z,63.71
2018-06-25T19:35:04.535Z,64.66
2018-06-25T19:36:41.103Z,64.97
2018-06-25T19:38:19.010Z,65.65
2018-06-25T19:39:57.271Z,66.01
2018-06-25T19:41:35.134Z,65.96
2018-06-25T19:43:11.202Z,66.32
2018-06-25T19:44:48.431Z,67.43
2018-06-25T19:46:25.809Z,68.69
2018-06-25T19:48:09.769Z,67.93
2018-06-25T19:49:53.677Z,68.75
2018-06-25T19:51:32.591Z,69.93
2018-06-25T19:53:13.874Z,69.96
2018-06-25T19:54:57.666Z,71.01
2018-06-25T19:56:47.292Z,71.87
2018-06-25T19:58:26.451Z,71.46
2018-06-25T20:00:10.449Z,72.34
2018-06-25T20:01:49.205Z,71.76
2018-06-25T20:03:34.460Z,72.16
2018-06-25T20:05:15.141Z,72.71
2018-06-25T20:06:50.268Z,72.50
2018-06-25T20:08:26.822Z,73.63
2018-06-25T20:10:04.367Z,73.40
2018-06-25T20:11:46.671Z,73.46
2018-06-25T20:13:29.525Z,74.09
2018-06-25T20:15:22.592Z,74.07
2018-06-25T20:17:05.362Z,74.23
2018-06-25T20:18:46.607Z,75.30
2018-06-25T20:20:29.012Z,75.37
2018-06-25T20:22:07.601Z,76.02
2018-06-25T20:23:47.024Z,76.24
2018-06-25T20:25:25.130Z,76.73
2018-06-25T20:27:00.203Z,77.60
2018-06-25T20:28:37.272Z,76.32
2018-06-25T20:30:17.352Z,76.78
2018-06-25T20:31:55.942Z,76.50
2018-06-25T20:33:37.697Z,77.12
2018-06-25T20:41:18.269Z,77.53
2018-06-25T20:43:02.266Z,78.11
2018-06-25T20:44:43.749Z,77.49
2018-06-25T20:46:23.341Z,79.03
2018-06-25T20:48:03.428Z,78.08
2018-06-25T20:49:39.684Z,78.54
2018-06-25T20:55:03.581Z,80.89
2018-06-25T20:56:43.692Z,80.16
2018-06-25T20:58:21.463Z,80.40
2018-06-25T21:00:01.972Z,80.97
2018-06-25T21:01:39.974Z,81.01
2018-06-25T21:03:17.832Z,80.81
2018-06-25T21:04:56.253Z,81.25
2018-06-25T21:06:34.441Z,81.34
2018-06-25T21:08:10.809Z,81.20
2018-06-25T21:09:51.637Z,81.50
2018-06-25T21:11:37.581Z,81.83
2018-06-25T21:13:14.089Z,81.48
2018-06-25T21:14:51.114Z,81.16
2018-06-25T21:16:27.360Z,81.27
2018-06-25T21:18:06.315Z,81.06
2018-06-25T21:19:43.324Z,81.23
2018-06-25T21:21:19.381Z,80.64
2018-06-25T21:23:00.226Z,80.82
2018-06-25T21:24:48.761Z,81.24
2018-06-25T21:26:26.342Z,81.22
2018-06-25T21:28:08.068Z,81.92
2018-06-25T21:29:46.811Z,81.71
2018-06-25T21:31:23.196Z,81.94
2018-06-25T21:33:00.567Z,81.69
2018-06-25T21:34:39.808Z,82.21